Time,TemperatureF,DewpointF,PressureIn,WindDirection,WindDirectionDegrees,WindSpeedMPH,WindSpeedGustMPH,Humidity,HourlyPrecipIn,Conditions,Clouds,dailyrainin,SoftwareType,DateUTC
2013-02-23 00:00:00,44.2,43.7,29.98,East,94,4.0,9.0,98,0.06,,SKC,0.12,VWS V13.00,2013-02-23 06:00:00,
2013-02-23 00:05:00,44.2,43.7,29.98,ESE,120,3.0,5.0,98,0.06,,SKC,0.00,VWS V13.00,2013-02-23 06:05:00,
2013-02-23 00:10:00,44.1,43.6,29.99,SE,126,0.0,6.0,98,0.06,,SKC,0.00,VWS V13.00,2013-02-23 06:10:00,
2013-02-23 00:15:00,44.1,43.6,30.01,SE,140,1.0,6.0,98,0.06,,SKC,0.00,VWS V13.00,2013-02-23 06:15:00,
2013-02-23 00:21:00,44.1,43.6,30.00,East,84,5.0,6.0,98,0.06,,SKC,0.00,VWS V13.00,2013-02-23 06:21:00,
2013-02-23 00:26:00,44.1,43.6,29.97,East,92,7.0,8.0,98,0.07,,SKC,0.01,VWS V13.00,2013-02-23 06:26:00,
2013-02-23 00:30:00,44.1,43.6,29.98,ENE,65,6.0,8.0,98,0.07,,SKC,0.01,VWS V13.00,2013-02-23 06:30:00,
2013-02-23 00:31:00,44.1,43.6,29.98,ENE,77,5.0,8.0,98,0.07,,SKC,0.01,VWS V13.00,2013-02-23 06:31:00,
2013-02-23 00:36:00,44.1,43.6,29.97,ENE,61,7.0,9.0,98,0.04,,SKC,0.01,VWS V13.00,2013-02-23 06:36:00,
2013-02-23 00:41:00,44.1,43.6,29.97,East,90,7.0,9.0,98,0.04,,SKC,0.01,VWS V13.00,2013-02-23 06:41:00,
2013-02-23 00:46:00,44.1,43.6,29.99,East,84,2.0,9.0,98,0.04,,SKC,0.01,VWS V13.00,2013-02-23 06:46:00,
2013-02-23 00:51:00,44.2,43.7,29.98,NE,49,6.0,9.0,98,0.05,,SKC,0.02,VWS V13.00,2013-02-23 06:51:00,
2013-02-23 00:56:00,44.2,43.7,29.97,ENE,59,5.0,9.0,98,0.05,,SKC,0.02,VWS V13.00,2013-02-23 06:56:00,
2013-02-23 01:00:00,44.3,43.8,29.98,North,355,1.0,9.0,98,0.05,,SKC,0.02,VWS V13.00,2013-02-23 07:00:00,
2013-02-23 01:01:00,44.2,43.7,29.98,North,355,1.0,9.0,98,0.05,,SKC,0.02,VWS V13.00,2013-02-23 07:01:00,
2013-02-23 01:06:00,44.3,43.8,29.98,NE,56,1.0,2.0,98,0.02,,SKC,0.02,VWS V13.00,2013-02-23 07:06:00,
2013-02-23 01:11:00,44.3,43.8,29.96,ESE,103,5.0,5.0,98,0.02,,SKC,0.02,VWS V13.00,2013-02-23 07:11:00,
2013-02-23 01:16:00,44.2,43.7,29.97,East,94,1.0,6.0,98,0.02,,SKC,0.02,VWS V13.00,2013-02-23 07:16:00,
2013-02-23 01:21:00,44.2,43.7,29.97,NE,39,2.0,6.0,98,0.02,,SKC,0.02,VWS V13.00,2013-02-23 07:21:00,
2013-02-23 01:26:00,44.3,43.8,29.96,East,79,5.0,6.0,98,0.02,,SKC,0.02,VWS V13.00,2013-02-23 07:26:00,
2013-02-23 01:30:00,44.3,43.8,29.96,ENE,67,5.0,6.0,98,0.02,,SKC,0.02,VWS V13.00,2013-02-23 07:30:00,
2013-02-23 01:31:00,44.3,43.8,29.96,NE,51,5.0,6.0,98,0.02,,SKC,0.02,VWS V13.00,2013-02-23 07:31:00,
2013-02-23 01:36:00,44.3,43.8,29.96,ENE,63,4.0,5.0,98,0.01,,SKC,0.02,VWS V13.00,2013-02-23 07:36:00,
2013-02-23 01:41:00,44.4,43.9,29.96,NE,40,2.0,5.0,98,0.01,,SKC,0.02,VWS V13.00,2013-02-23 07:41:00,
2013-02-23 01:46:00,44.4,43.9,29.96,ENE,63,4.0,5.0,98,0.01,,SKC,0.02,VWS V13.00,2013-02-23 07:46:00,
2013-02-23 01:51:00,44.4,43.9,29.96,NE,46,5.0,7.0,98,0.01,,SKC,0.02,VWS V13.00,2013-02-23 07:51:00,
2013-02-23 01:56:00,44.5,44.0,29.96,ENE,63,2.0,7.0,98,0.01,,SKC,0.02,VWS V13.00,2013-02-23 07:56:00,
2013-02-23 02:00:00,44.5,44.0,29.95,NE,52,4.0,7.0,98,0.01,,SKC,0.02,VWS V13.00,2013-02-23 08:00:00,
2013-02-23 02:01:00,44.5,44.0,29.95,NE,51,4.0,7.0,98,0.01,,SKC,0.02,VWS V13.00,2013-02-23 08:01:00,
2013-02-23 02:06:00,44.5,44.0,29.95,ENE,78,2.0,5.0,98,0.00,,SKC,0.02,VWS V13.00,2013-02-23 08:06:00,
2013-02-23 02:11:00,44.5,44.0,29.95,NE,44,4.0,5.0,98,0.00,,SKC,0.02,VWS V13.00,2013-02-23 08:11:00,
2013-02-23 02:16:00,44.5,44.0,29.95,North,355,2.0,5.0,98,0.01,,SKC,0.03,VWS V13.00,2013-02-23 08:16:00,
2013-02-23 02:21:00,44.5,44.0,29.95,NE,47,5.0,5.0,98,0.02,,SKC,0.04,VWS V13.00,2013-02-23 08:21:00,
2013-02-23 02:26:00,44.5,44.0,29.95,NE,54,4.0,5.0,98,0.02,,SKC,0.04,VWS V13.00,2013-02-23 08:26:00,
2013-02-23 02:30:00,44.5,44.0,29.94,East,81,2.0,5.0,98,0.02,,SKC,0.04,VWS V13.00,2013-02-23 08:30:00,
2013-02-23 02:31:00,44.5,44.0,29.95,ENE,76,3.0,5.0,98,0.02,,SKC,0.04,VWS V13.00,2013-02-23 08:31:00,
2013-02-23 02:36:00,44.5,44.0,29.95,ENE,60,4.0,4.0,98,0.03,,SKC,0.06,VWS V13.00,2013-02-23 08:36:00,
2013-02-23 02:41:00,44.5,44.0,29.95,ENE,59,1.0,5.0,98,0.06,,SKC,0.08,VWS V13.00,2013-02-23 08:41:00,
2013-02-23 02:46:00,44.5,44.0,29.95,ENE,59,0.0,5.0,98,0.06,,SKC,0.08,VWS V13.00,2013-02-23 08:46:00,
2013-02-23 02:51:00,44.5,44.0,29.95,North,5,3.0,5.0,98,0.07,,SKC,0.10,VWS V13.00,2013-02-23 08:51:00,
2013-02-23 02:56:00,44.5,44.0,29.95,North,5,4.0,6.0,98,0.09,,SKC,0.11,VWS V13.00,2013-02-23 08:56:00,
2013-02-23 03:00:00,44.6,44.1,29.96,North,349,1.0,6.0,98,0.10,,SKC,0.12,VWS V13.00,2013-02-23 09:00:00,
2013-02-23 03:01:00,44.5,44.0,29.96,North,355,2.0,6.0,98,0.10,,SKC,0.12,VWS V13.00,2013-02-23 09:01:00,
2013-02-23 03:06:00,44.6,44.1,29.94,NE,36,4.0,5.0,98,0.10,,SKC,0.12,VWS V13.00,2013-02-23 09:06:00,
2013-02-23 03:11:00,44.6,44.1,29.94,ENE,62,3.0,5.0,98,0.11,,SKC,0.13,VWS V13.00,2013-02-23 09:11:00,
2013-02-23 03:15:00,44.6,44.1,29.95,NE,45,1.0,5.0,98,0.12,,SKC,0.14,VWS V13.00,2013-02-23 09:15:00,
2013-02-23 03:20:00,44.6,44.1,29.94,NE,45,1.0,5.0,98,0.12,,SKC,0.14,VWS V13.00,2013-02-23 09:20:00,
2013-02-23 03:25:00,44.6,44.1,29.93,NE,55,4.0,5.0,98,0.12,,SKC,0.14,VWS V13.00,2013-02-23 09:25:00,
2013-02-23 03:30:00,44.7,44.2,29.93,NE,38,4.0,5.0,98,0.12,,SKC,0.14,VWS V13.00,2013-02-23 09:30:00,
2013-02-23 03:35:00,44.7,44.2,29.93,NNE,19,3.0,6.0,98,0.10,,SKC,0.14,VWS V13.00,2013-02-23 09:35:00,
2013-02-23 03:40:00,44.7,44.2,29.93,NNE,31,1.0,6.0,98,0.11,,SKC,0.15,VWS V13.00,2013-02-23 09:40:00,
2013-02-23 03:45:00,44.7,44.2,29.93,NNE,15,4.0,6.0,98,0.11,,SKC,0.15,VWS V13.00,2013-02-23 09:45:00,
2013-02-23 03:50:00,44.7,44.2,29.93,NE,44,6.0,6.0,98,0.11,,SKC,0.15,VWS V13.00,2013-02-23 09:50:00,
2013-02-23 03:55:00,44.7,44.2,29.93,NE,55,2.0,6.0,98,0.11,,SKC,0.15,VWS V13.00,2013-02-23 09:55:00,
2013-02-23 04:00:00,44.8,44.3,29.92,ENE,65,4.0,6.0,98,0.12,,SKC,0.16,VWS V13.00,2013-02-23 10:00:00,
2013-02-23 04:05:00,44.8,44.3,29.92,ENE,78,1.0,6.0,98,0.04,,SKC,0.16,VWS V13.00,2013-02-23 10:05:00,
2013-02-23 04:10:00,44.8,44.3,29.93,ENE,78,0.0,6.0,98,0.04,,SKC,0.16,VWS V13.00,2013-02-23 10:10:00,
2013-02-23 04:15:00,44.8,44.3,29.92,ENE,78,2.0,6.0,98,0.05,,SKC,0.17,VWS V13.00,2013-02-23 10:15:00,
2013-02-23 04:20:00,44.9,44.6,29.92,NE,53,4.0,6.0,99,0.05,,SKC,0.17,VWS V13.00,2013-02-23 10:20:00,
2013-02-23 04:25:00,44.9,44.6,29.93,NE,53,1.0,6.0,99,0.05,,SKC,0.17,VWS V13.00,2013-02-23 10:25:00,
2013-02-23 04:30:00,45.0,44.7,29.94,NNE,18,2.0,6.0,99,0.05,,SKC,0.17,VWS V13.00,2013-02-23 10:30:00,
2013-02-23 04:35:00,45.0,44.7,29.93,NE,39,4.0,5.0,99,0.03,,SKC,0.17,VWS V13.00,2013-02-23 10:35:00,
2013-02-23 04:40:00,45.0,44.7,29.92,ENE,67,2.0,5.0,99,0.03,,SKC,0.17,VWS V13.00,2013-02-23 10:40:00,
2013-02-23 04:45:00,45.0,44.7,29.92,NE,52,4.0,5.0,99,0.03,,SKC,0.17,VWS V13.00,2013-02-23 10:45:00,
2013-02-23 04:50:00,45.0,44.7,29.93,NE,55,0.0,5.0,99,0.03,,SKC,0.17,VWS V13.00,2013-02-23 10:50:00,
2013-02-23 04:55:00,45.1,44.8,29.93,NE,55,0.0,5.0,99,0.03,,SKC,0.17,VWS V13.00,2013-02-23 10:55:00,
2013-02-23 05:00:00,45.1,44.8,29.93,ESE,106,1.0,5.0,99,0.03,,SKC,0.17,VWS V13.00,2013-02-23 11:00:00,
2013-02-23 05:05:00,45.1,44.8,29.94,East,94,0.0,2.0,99,0.02,,SKC,0.18,VWS V13.00,2013-02-23 11:05:00,
2013-02-23 05:10:00,45.1,44.8,29.94,NE,38,1.0,2.0,99,0.02,,SKC,0.19,VWS V13.00,2013-02-23 11:10:00,
2013-02-23 05:15:00,45.1,44.8,29.93,NE,48,5.0,5.0,99,0.04,,SKC,0.20,VWS V13.00,2013-02-23 11:15:00,
2013-02-23 05:20:00,45.2,44.9,29.93,ENE,62,2.0,5.0,99,0.04,,SKC,0.20,VWS V13.00,2013-02-23 11:20:00,
2013-02-23 05:25:00,45.2,44.9,29.94,ENE,63,0.0,5.0,99,0.04,,SKC,0.20,VWS V13.00,2013-02-23 11:25:00,
2013-02-23 05:30:00,45.2,44.9,29.94,NNE,23,1.0,5.0,99,0.04,,SKC,0.20,VWS V13.00,2013-02-23 11:30:00,
2013-02-23 05:35:00,45.2,44.9,29.94,North,350,2.0,4.0,99,0.03,,SKC,0.20,VWS V13.00,2013-02-23 11:35:00,
2013-02-23 05:40:00,45.2,44.9,29.94,NNE,20,3.0,4.0,99,0.03,,SKC,0.20,VWS V13.00,2013-02-23 11:40:00,
2013-02-23 05:45:00,45.3,45.0,29.94,North,9,4.0,5.0,99,0.03,,SKC,0.20,VWS V13.00,2013-02-23 11:45:00,
2013-02-23 05:50:00,45.3,45.0,29.94,WNW,298,2.0,5.0,99,0.03,,SKC,0.20,VWS V13.00,2013-02-23 11:50:00,
2013-02-23 05:55:00,45.3,45.0,29.95,North,349,2.0,5.0,99,0.03,,SKC,0.20,VWS V13.00,2013-02-23 11:55:00,
2013-02-23 06:00:00,45.4,45.1,29.94,North,350,1.0,5.0,99,0.03,,SKC,0.20,VWS V13.00,2013-02-23 12:00:00,
2013-02-23 06:05:00,45.4,45.1,29.94,NNE,16,1.0,4.0,99,0.03,,SKC,0.20,VWS V13.00,2013-02-23 12:05:00,
2013-02-23 06:10:00,45.4,45.1,29.94,NE,36,1.0,4.0,99,0.03,,SKC,0.20,VWS V13.00,2013-02-23 12:10:00,
2013-02-23 06:15:00,45.4,45.1,29.94,NE,36,0.0,4.0,99,0.03,,SKC,0.20,VWS V13.00,2013-02-23 12:15:00,
2013-02-23 06:20:00,45.5,45.2,29.95,NE,36,0.0,4.0,99,0.03,,SKC,0.20,VWS V13.00,2013-02-23 12:20:00,
2013-02-23 06:25:00,45.5,45.2,29.95,NE,36,1.0,4.0,99,0.03,,SKC,0.20,VWS V13.00,2013-02-23 12:25:00,
2013-02-23 06:30:00,45.5,45.2,29.95,NE,36,0.0,4.0,99,0.03,,SKC,0.20,VWS V13.00,2013-02-23 12:30:00,
2013-02-23 06:35:00,45.5,45.2,29.94,NE,36,0.0,0.0,99,0.00,,SKC,0.20,VWS V13.00,2013-02-23 12:35:00,
2013-02-23 06:40:00,45.6,45.3,29.94,NE,36,0.0,0.0,99,0.00,,SKC,0.20,VWS V13.00,2013-02-23 12:40:00,
2013-02-23 06:45:00,45.6,45.3,29.95,NE,36,0.0,0.0,99,0.00,,SKC,0.20,VWS V13.00,2013-02-23 12:45:00,
2013-02-23 06:50:00,45.7,45.4,29.94,NE,36,0.0,0.0,99,0.00,,SKC,0.20,VWS V13.00,2013-02-23 12:50:00,
2013-02-23 06:55:00,45.8,45.5,29.94,NE,36,0.0,0.0,99,0.00,,SKC,0.20,VWS V13.00,2013-02-23 12:55:00,
2013-02-23 07:00:00,45.8,45.5,29.94,NE,36,0.0,0.0,99,0.00,,SKC,0.20,VWS V13.00,2013-02-23 13:00:00,
2013-02-23 07:05:00,45.9,45.6,29.94,NE,36,0.0,0.0,99,0.00,,SKC,0.20,VWS V13.00,2013-02-23 13:05:00,
2013-02-23 07:10:00,45.9,45.6,29.94,NE,36,0.0,0.0,99,0.00,,SKC,0.20,VWS V13.00,2013-02-23 13:10:00,
2013-02-23 07:15:00,46.0,45.7,29.95,NE,36,0.0,2.0,99,0.00,,SKC,0.20,VWS V13.00,2013-02-23 13:15:00,
2013-02-23 07:20:00,46.1,45.8,29.95,NE,36,0.0,2.0,99,0.00,,SKC,0.20,VWS V13.00,2013-02-23 13:20:00,
2013-02-23 07:25:00,46.2,45.9,29.95,NE,36,1.0,2.0,99,0.00,,SKC,0.20,VWS V13.00,2013-02-23 13:25:00,
2013-02-23 07:30:00,46.3,46.0,29.95,NE,35,3.0,3.0,99,0.00,,SKC,0.20,VWS V13.00,2013-02-23 13:30:00,
2013-02-23 07:35:00,46.3,46.0,29.95,NNE,18,1.0,4.0,99,0.00,,SKC,0.20,VWS V13.00,2013-02-23 13:35:00,
2013-02-23 07:40:00,46.5,46.2,29.94,North,11,2.0,4.0,99,0.00,,SKC,0.20,VWS V13.00,2013-02-23 13:40:00,
2013-02-23 07:45:00,46.6,46.3,29.95,North,5,1.0,4.0,99,0.00,,SKC,0.20,VWS V13.00,2013-02-23 13:45:00,
2013-02-23 07:50:00,46.6,46.3,29.95,NNE,26,0.0,4.0,99,0.00,,SKC,0.20,VWS V13.00,2013-02-23 13:50:00,
2013-02-23 07:55:00,46.6,46.3,29.95,NNE,28,1.0,4.0,99,0.00,,SKC,0.20,VWS V13.00,2013-02-23 13:55:00,
2013-02-23 08:00:00,46.6,46.3,29.95,NNE,28,1.0,4.0,99,0.00,,SKC,0.20,VWS V13.00,2013-02-23 14:00:00,
2013-02-23 08:05:00,46.8,46.5,29.95,NE,52,4.0,4.0,99,0.00,,SKC,0.20,VWS V13.00,2013-02-23 14:05:00,
2013-02-23 08:10:00,47.0,46.7,29.94,NE,52,0.0,4.0,99,0.00,,SKC,0.20,VWS V13.00,2013-02-23 14:10:00,
2013-02-23 08:15:00,47.2,46.9,29.94,NE,56,2.0,4.0,99,0.00,,SKC,0.20,VWS V13.00,2013-02-23 14:15:00,
2013-02-23 08:20:00,47.4,47.1,29.94,NE,53,5.0,6.0,99,0.00,,SKC,0.20,VWS V13.00,2013-02-23 14:20:00,
2013-02-23 08:25:00,47.6,47.1,29.94,NE,52,4.0,7.0,98,0.00,,SKC,0.20,VWS V13.00,2013-02-23 14:25:00,
2013-02-23 08:30:00,47.7,47.2,29.94,NE,56,3.0,7.0,98,0.00,,SKC,0.20,VWS V13.00,2013-02-23 14:30:00,
2013-02-23 08:35:00,47.8,47.0,29.94,NNE,24,5.0,6.0,97,0.00,,SKC,0.20,VWS V13.00,2013-02-23 14:35:00,
2013-02-23 08:40:00,47.9,47.1,29.94,North,360,2.0,7.0,97,0.00,,SKC,0.20,VWS V13.00,2013-02-23 14:40:00,
2013-02-23 08:45:00,48.2,47.4,29.94,NNE,24,2.0,7.0,97,0.00,,SKC,0.20,VWS V13.00,2013-02-23 14:45:00,
2013-02-23 08:50:00,48.3,47.5,29.93,ENE,59,5.0,7.0,97,0.00,,SKC,0.20,VWS V13.00,2013-02-23 14:50:00,
2013-02-23 08:55:00,48.4,47.3,29.93,NE,37,1.0,7.0,96,0.00,,SKC,0.20,VWS V13.00,2013-02-23 14:55:00,
2013-02-23 09:00:00,48.5,47.7,29.94,NNE,13,5.0,7.0,97,0.00,,SKC,0.20,VWS V13.00,2013-02-23 15:00:00,
2013-02-23 09:05:00,48.7,47.9,29.94,NE,38,3.0,5.0,97,0.00,,SKC,0.20,VWS V13.00,2013-02-23 15:05:00,
2013-02-23 09:10:00,48.8,47.7,29.94,NNE,15,4.0,6.0,96,0.00,,SKC,0.20,VWS V13.00,2013-02-23 15:10:00,
2013-02-23 09:15:00,48.9,47.5,29.93,North,11,4.0,6.0,95,0.00,,SKC,0.20,VWS V13.00,2013-02-23 15:15:00,
2013-02-23 09:20:00,48.9,47.8,29.93,NE,34,3.0,6.0,96,0.00,,SKC,0.20,VWS V13.00,2013-02-23 15:20:00,
2013-02-23 09:25:00,49.0,47.9,29.93,NNE,22,3.0,6.0,96,0.00,,SKC,0.20,VWS V13.00,2013-02-23 15:25:00,
2013-02-23 09:30:00,49.0,47.9,29.93,NNE,17,4.0,6.0,96,0.00,,SKC,0.20,VWS V13.00,2013-02-23 15:30:00,
2013-02-23 09:35:00,49.0,47.9,29.93,NE,40,4.0,6.0,96,0.00,,SKC,0.20,VWS V13.00,2013-02-23 15:35:00,
2013-02-23 09:40:00,49.1,48.0,29.94,North,355,5.0,7.0,96,0.00,,SKC,0.20,VWS V13.00,2013-02-23 15:40:00,
2013-02-23 09:45:00,49.1,48.0,29.94,North,5,6.0,7.0,96,0.00,,SKC,0.20,VWS V13.00,2013-02-23 15:45:00,
2013-02-23 09:50:00,49.1,48.0,29.94,North,355,5.0,7.0,96,0.00,,SKC,0.20,VWS V13.00,2013-02-23 15:50:00,
2013-02-23 09:55:00,49.0,47.9,29.94,NE,36,4.0,7.0,96,0.00,,SKC,0.20,VWS V13.00,2013-02-23 15:55:00,
2013-02-23 10:00:00,48.9,47.8,29.94,NNW,345,2.0,7.0,96,0.00,,SKC,0.20,VWS V13.00,2013-02-23 16:00:00,
2013-02-23 10:05:00,49.1,48.0,29.93,NE,34,7.0,7.0,96,0.00,,SKC,0.20,VWS V13.00,2013-02-23 16:05:00,
2013-02-23 10:10:00,49.3,48.2,29.94,NNE,15,4.0,7.0,96,0.00,,SKC,0.20,VWS V13.00,2013-02-23 16:10:00,
2013-02-23 10:15:00,49.5,48.1,29.93,NE,34,2.0,7.0,95,0.00,,SKC,0.20,VWS V13.00,2013-02-23 16:15:00,
2013-02-23 10:20:00,49.6,48.2,29.93,NNE,18,2.0,7.0,95,0.00,,SKC,0.20,VWS V13.00,2013-02-23 16:20:00,
2013-02-23 10:25:00,49.8,48.4,29.93,NE,44,6.0,7.0,95,0.00,,SKC,0.20,VWS V13.00,2013-02-23 16:25:00,
2013-02-23 10:30:00,49.9,48.5,29.93,ENE,61,5.0,7.0,95,0.00,,SKC,0.20,VWS V13.00,2013-02-23 16:30:00,
2013-02-23 10:35:00,50.1,48.4,29.93,ENE,67,4.0,7.0,94,0.00,,SKC,0.20,VWS V13.00,2013-02-23 16:35:00,
2013-02-23 11:00:00,51.7,49.5,29.94,ENE,68,2.0,7.0,92,0.00,,SKC,0.20,VWS V13.00,2013-02-23 17:00:00,
2013-02-23 11:30:00,52.7,49.2,29.92,NNE,22,2.0,7.0,88,0.00,,SKC,0.20,VWS V13.00,2013-02-23 17:30:00,
2013-02-23 12:00:00,52.4,49.3,29.92,NNW,338,3.0,6.0,89,0.00,,SKC,0.20,VWS V13.00,2013-02-23 18:00:00,
2013-02-23 12:36:00,53.9,50.4,29.90,NW,315,2.0,7.0,88,0.00,,SKC,0.20,VWS V13.00,2013-02-23 18:36:00,
2013-02-23 12:41:00,53.6,49.5,29.90,NNW,342,4.0,7.0,86,0.00,,SKC,0.20,VWS V13.00,2013-02-23 18:41:00,
2013-02-23 12:46:00,54.0,50.2,29.90,North,5,5.0,8.0,87,0.00,,SKC,0.20,VWS V13.00,2013-02-23 18:46:00,
2013-02-23 12:51:00,54.1,50.0,29.90,WNW,287,5.0,8.0,86,0.00,,SKC,0.20,VWS V13.00,2013-02-23 18:51:00,
2013-02-23 12:56:00,53.9,50.1,29.90,NNW,329,5.0,9.0,87,0.00,,SKC,0.20,VWS V13.00,2013-02-23 18:56:00,
2013-02-23 13:01:00,54.2,50.4,29.90,WNW,299,6.0,9.0,87,0.00,,SKC,0.20,VWS V13.00,2013-02-23 19:01:00,
2013-02-23 13:06:00,54.1,49.7,29.90,NW,322,5.0,7.0,85,0.00,,SKC,0.20,VWS V13.00,2013-02-23 19:06:00,
2013-02-23 13:11:00,53.9,49.8,29.90,NW,315,5.0,8.0,86,0.00,,SKC,0.20,VWS V13.00,2013-02-23 19:11:00,
2013-02-23 13:16:00,53.9,49.8,29.90,NW,319,6.0,8.0,86,0.00,,SKC,0.20,VWS V13.00,2013-02-23 19:16:00,
2013-02-23 13:21:00,53.4,49.6,29.90,NW,308,6.0,8.0,87,0.00,,SKC,0.20,VWS V13.00,2013-02-23 19:21:00,
2013-02-23 13:26:00,53.0,49.2,29.90,WNW,296,8.0,9.0,87,0.00,,SKC,0.20,VWS V13.00,2013-02-23 19:26:00,
2013-02-23 13:31:00,52.8,49.0,29.90,North,5,5.0,10.0,87,0.00,,SKC,0.20,VWS V13.00,2013-02-23 19:31:00,
2013-02-23 13:36:00,52.7,49.2,29.90,NNE,22,5.0,7.0,88,0.00,,SKC,0.20,VWS V13.00,2013-02-23 19:36:00,
2013-02-23 13:41:00,52.6,49.2,29.90,WNW,302,5.0,8.0,88,0.00,,SKC,0.20,VWS V13.00,2013-02-23 19:41:00,
2013-02-23 13:46:00,52.4,49.0,29.90,WNW,301,6.0,8.0,88,0.00,,SKC,0.20,VWS V13.00,2013-02-23 19:46:00,
2013-02-23 13:51:00,52.2,49.1,29.91,WNW,288,4.0,8.0,89,0.00,,SKC,0.20,VWS V13.00,2013-02-23 19:51:00,
2013-02-23 13:56:00,52.0,48.9,29.90,NW,319,4.0,8.0,89,0.00,,SKC,0.20,VWS V13.00,2013-02-23 19:56:00,
2013-02-23 14:01:00,51.7,48.6,29.90,WNW,294,4.0,8.0,89,0.00,,SKC,0.20,VWS V13.00,2013-02-23 20:01:00,
2013-02-23 14:06:00,51.5,48.4,29.90,NNW,339,4.0,8.0,89,0.00,,SKC,0.20,VWS V13.00,2013-02-23 20:06:00,
2013-02-23 14:11:00,51.4,48.6,29.90,NW,318,4.0,8.0,90,0.00,,SKC,0.20,VWS V13.00,2013-02-23 20:11:00,
2013-02-23 14:16:00,51.4,48.6,29.90,NNW,333,5.0,8.0,90,0.00,,SKC,0.20,VWS V13.00,2013-02-23 20:16:00,
2013-02-23 14:21:00,51.1,48.3,29.90,North,355,5.0,8.0,90,0.00,,SKC,0.20,VWS V13.00,2013-02-23 20:21:00,
2013-02-23 14:26:00,51.0,48.2,29.90,NNW,333,4.0,8.0,90,0.00,,SKC,0.20,VWS V13.00,2013-02-23 20:26:00,
2013-02-23 14:31:00,50.8,48.3,29.90,NW,320,7.0,9.0,91,0.00,,SKC,0.20,VWS V13.00,2013-02-23 20:31:00,
2013-02-23 14:36:00,50.3,47.8,29.90,North,350,7.0,9.0,91,0.00,,SKC,0.20,VWS V13.00,2013-02-23 20:36:00,
2013-02-23 14:41:00,50.0,47.5,29.90,NNW,344,7.0,9.0,91,0.00,,SKC,0.20,VWS V13.00,2013-02-23 20:41:00,
2013-02-23 14:46:00,49.8,47.3,29.90,North,5,4.0,9.0,91,0.00,,SKC,0.20,VWS V13.00,2013-02-23 20:46:00,
2013-02-23 14:51:00,49.8,47.6,29.89,NNW,327,6.0,9.0,92,0.00,,SKC,0.20,VWS V13.00,2013-02-23 20:51:00,
2013-02-23 14:56:00,49.7,47.5,29.90,North,355,6.0,9.0,92,0.00,,SKC,0.20,VWS V13.00,2013-02-23 20:56:00,
2013-02-23 15:01:00,49.7,47.5,29.89,NNE,15,1.0,9.0,92,0.00,,SKC,0.20,VWS V13.00,2013-02-23 21:01:00,
2013-02-23 15:05:00,49.7,47.5,29.88,North,355,7.0,7.0,92,0.00,,SKC,0.20,VWS V13.00,2013-02-23 21:05:00,
2013-02-23 15:10:00,49.4,47.5,29.89,NNW,346,4.0,9.0,93,0.00,,SKC,0.20,VWS V13.00,2013-02-23 21:10:00,
2013-02-23 15:15:00,49.4,47.5,29.90,North,360,8.0,9.0,93,0.00,,SKC,0.20,VWS V13.00,2013-02-23 21:15:00,
2013-02-23 15:20:00,49.1,47.2,29.89,North,11,2.0,9.0,93,0.00,,SKC,0.20,VWS V13.00,2013-02-23 21:20:00,
2013-02-23 15:25:00,49.0,47.3,29.89,NNW,331,6.0,9.0,94,0.00,,SKC,0.20,VWS V13.00,2013-02-23 21:25:00,
2013-02-23 15:30:00,48.9,47.0,29.89,NNW,347,6.0,9.0,93,0.00,,SKC,0.20,VWS V13.00,2013-02-23 21:30:00,
2013-02-23 15:35:00,48.8,46.9,29.89,NW,315,9.0,10.0,93,0.00,,SKC,0.20,VWS V13.00,2013-02-23 21:35:00,
2013-02-23 15:40:00,48.7,47.0,29.89,NNW,331,4.0,10.0,94,0.00,,SKC,0.20,VWS V13.00,2013-02-23 21:40:00,
2013-02-23 15:45:00,48.8,47.2,29.89,NNW,333,2.0,10.0,94,0.00,,SKC,0.20,VWS V13.00,2013-02-23 21:45:00,
2013-02-23 15:50:00,48.8,47.4,29.88,NNW,334,3.0,10.0,95,0.00,,SKC,0.20,VWS V13.00,2013-02-23 21:50:00,
2013-02-23 15:55:00,48.7,47.0,29.89,NNW,336,4.0,10.0,94,0.00,,SKC,0.20,VWS V13.00,2013-02-23 21:55:00,
2013-02-23 16:00:00,48.7,47.0,29.88,North,360,3.0,10.0,94,0.00,,SKC,0.20,VWS V13.00,2013-02-23 22:00:00,
2013-02-23 16:05:00,48.6,47.2,29.88,North,360,4.0,6.0,95,0.00,,SKC,0.20,VWS V13.00,2013-02-23 22:05:00,
2013-02-23 16:10:00,48.6,47.2,29.88,NW,311,3.0,6.0,95,0.00,,SKC,0.20,VWS V13.00,2013-02-23 22:10:00,
2013-02-23 16:15:00,48.5,47.1,29.87,NNW,348,2.0,7.0,95,0.00,,SKC,0.20,VWS V13.00,2013-02-23 22:15:00,
2013-02-23 16:20:00,48.5,47.1,29.87,NNW,327,2.0,7.0,95,0.00,,SKC,0.20,VWS V13.00,2013-02-23 22:20:00,
2013-02-23 16:25:00,48.5,47.1,29.87,NNW,330,2.0,7.0,95,0.00,,SKC,0.20,VWS V13.00,2013-02-23 22:25:00,
2013-02-23 16:30:00,48.5,47.1,29.87,West,280,6.0,7.0,95,0.00,,SKC,0.20,VWS V13.00,2013-02-23 22:30:00,
2013-02-23 16:35:00,48.4,47.0,29.88,WNW,288,5.0,7.0,95,0.00,,SKC,0.20,VWS V13.00,2013-02-23 22:35:00,
2013-02-23 16:40:00,48.3,46.9,29.87,NNW,340,1.0,7.0,95,0.00,,SKC,0.20,VWS V13.00,2013-02-23 22:40:00,
2013-02-23 16:45:00,48.3,46.9,29.87,NW,311,1.0,7.0,95,0.00,,SKC,0.20,VWS V13.00,2013-02-23 22:45:00,
2013-02-23 16:50:00,48.3,46.9,29.87,NNW,340,2.0,7.0,95,0.00,,SKC,0.20,VWS V13.00,2013-02-23 22:50:00,
2013-02-23 16:55:00,48.3,46.9,29.87,WNW,286,5.0,7.0,95,0.00,,SKC,0.20,VWS V13.00,2013-02-23 22:55:00,
2013-02-23 17:00:00,48.2,46.6,29.86,NNW,328,2.0,7.0,94,0.00,,SKC,0.20,VWS V13.00,2013-02-23 23:00:00,
2013-02-23 17:05:00,48.2,46.8,29.86,WNW,299,1.0,5.0,95,0.00,,SKC,0.20,VWS V13.00,2013-02-23 23:05:00,
2013-02-23 17:10:00,48.2,46.8,29.86,NNW,342,5.0,5.0,95,0.00,,SKC,0.20,VWS V13.00,2013-02-23 23:10:00,
2013-02-23 17:15:00,48.2,46.8,29.86,WNW,300,2.0,6.0,95,0.00,,SKC,0.20,VWS V13.00,2013-02-23 23:15:00,
2013-02-23 17:20:00,48.1,46.7,29.86,WNW,299,2.0,6.0,95,0.00,,SKC,0.20,VWS V13.00,2013-02-23 23:20:00,
2013-02-23 17:25:00,48.0,46.6,29.87,WNW,289,2.0,6.0,95,0.00,,SKC,0.20,VWS V13.00,2013-02-23 23:25:00,
2013-02-23 17:30:00,47.9,46.5,29.87,NW,313,2.0,6.0,95,0.00,,SKC,0.20,VWS V13.00,2013-02-23 23:30:00,
2013-02-23 17:35:00,47.8,46.4,29.88,NW,317,4.0,4.0,95,0.00,,SKC,0.20,VWS V13.00,2013-02-23 23:35:00,
2013-02-23 17:40:00,47.6,46.2,29.87,NW,317,0.0,4.0,95,0.00,,SKC,0.20,VWS V13.00,2013-02-23 23:40:00,
2013-02-23 17:45:00,47.5,46.1,29.88,NW,320,2.0,4.0,95,0.00,,SKC,0.20,VWS V13.00,2013-02-23 23:45:00,
2013-02-23 17:50:00,47.4,46.0,29.88,NNW,327,1.0,4.0,95,0.00,,SKC,0.20,VWS V13.00,2013-02-23 23:50:00,
2013-02-23 17:55:00,47.3,45.9,29.88,NW,323,2.0,4.0,95,0.00,,SKC,0.20,VWS V13.00,2013-02-23 23:55:00,
2013-02-23 18:00:00,47.2,45.8,29.88,WNW,294,4.0,5.0,95,0.00,,SKC,0.20,VWS V13.00,2013-02-24 00:00:00,
2013-02-23 18:05:00,47.1,45.7,29.88,WNW,299,0.0,3.0,95,0.00,,SKC,0.20,VWS V13.00,2013-02-24 00:05:00,
2013-02-23 18:10:00,47.0,45.7,29.89,WNW,303,5.0,6.0,95,0.00,,SKC,0.20,VWS V13.00,2013-02-24 00:10:00,
2013-02-23 18:15:00,46.8,45.5,29.89,NW,304,2.0,6.0,95,0.00,,SKC,0.20,VWS V13.00,2013-02-24 00:15:00,
2013-02-23 18:20:00,46.6,45.5,29.89,NW,304,1.0,6.0,96,0.00,,SKC,0.20,VWS V13.00,2013-02-24 00:20:00,
2013-02-23 18:25:00,46.5,45.4,29.90,NW,304,2.0,6.0,96,0.00,,SKC,0.20,VWS V13.00,2013-02-24 00:25:00,
2013-02-23 18:30:00,46.4,45.3,29.90,NW,304,1.0,6.0,96,0.00,,SKC,0.20,VWS V13.00,2013-02-24 00:30:00,
2013-02-23 18:35:00,46.2,45.1,29.90,WNW,290,0.0,4.0,96,0.00,,SKC,0.20,VWS V13.00,2013-02-24 00:35:00,
2013-02-23 18:40:00,46.2,45.1,29.91,WNW,290,0.0,4.0,96,0.00,,SKC,0.20,VWS V13.00,2013-02-24 00:40:00,
2013-02-23 18:45:00,46.1,45.0,29.91,WNW,286,0.0,4.0,96,0.00,,SKC,0.20,VWS V13.00,2013-02-24 00:45:00,
2013-02-23 18:50:00,45.9,44.8,29.91,WNW,285,2.0,4.0,96,0.00,,SKC,0.20,VWS V13.00,2013-02-24 00:50:00,
2013-02-23 18:55:00,45.7,44.6,29.91,West,275,0.0,4.0,96,0.00,,SKC,0.20,VWS V13.00,2013-02-24 00:55:00,
2013-02-23 19:00:00,45.5,44.4,29.92,West,275,1.0,4.0,96,0.00,,SKC,0.20,VWS V13.00,2013-02-24 01:00:00,
2013-02-23 19:05:00,45.3,44.2,29.92,West,275,2.0,4.0,96,0.00,,SKC,0.20,VWS V13.00,2013-02-24 01:05:00,
2013-02-23 19:10:00,45.2,44.4,29.92,West,269,2.0,5.0,97,0.00,,SKC,0.20,VWS V13.00,2013-02-24 01:10:00,
2013-02-23 19:15:00,45.1,44.3,29.92,WNW,288,4.0,5.0,97,0.00,,SKC,0.20,VWS V13.00,2013-02-24 01:15:00,
2013-02-23 19:20:00,45.1,44.0,29.93,West,281,4.0,5.0,96,0.00,,SKC,0.20,VWS V13.00,2013-02-24 01:20:00,
2013-02-23 19:25:00,45.1,44.0,29.93,WNW,283,5.0,6.0,96,0.00,,SKC,0.20,VWS V13.00,2013-02-24 01:25:00,
2013-02-23 19:30:00,45.3,44.5,29.92,WNW,283,4.0,7.0,97,0.00,,SKC,0.20,VWS V13.00,2013-02-24 01:30:00,
2013-02-23 19:35:00,45.4,44.3,29.93,WNW,287,5.0,7.0,96,0.00,,SKC,0.20,VWS V13.00,2013-02-24 01:35:00,
2013-02-23 19:40:00,45.4,44.3,29.93,WNW,294,4.0,7.0,96,0.00,,SKC,0.20,VWS V13.00,2013-02-24 01:40:00,
2013-02-23 19:45:00,45.2,44.1,29.93,WNW,297,6.0,8.0,96,0.00,,SKC,0.20,VWS V13.00,2013-02-24 01:45:00,
2013-02-23 19:50:00,45.1,44.0,29.93,WNW,291,4.0,8.0,96,0.00,,SKC,0.20,VWS V13.00,2013-02-24 01:50:00,
2013-02-23 19:55:00,44.9,43.8,29.93,WNW,301,3.0,8.0,96,0.00,,SKC,0.20,VWS V13.00,2013-02-24 01:55:00,
2013-02-23 20:00:00,44.9,43.8,29.93,NW,315,2.0,8.0,96,0.00,,SKC,0.20,VWS V13.00,2013-02-24 02:00:00,
2013-02-23 20:05:00,44.8,43.7,29.93,NW,311,0.0,2.0,96,0.00,,SKC,0.20,VWS V13.00,2013-02-24 02:05:00,
2013-02-23 20:10:00,44.7,43.6,29.93,NW,310,1.0,5.0,96,0.00,,SKC,0.20,VWS V13.00,2013-02-24 02:10:00,
2013-02-23 20:15:00,44.7,43.6,29.93,NW,310,2.0,5.0,96,0.00,,SKC,0.20,VWS V13.00,2013-02-24 02:15:00,
2013-02-23 20:20:00,44.6,43.5,29.93,WNW,293,5.0,5.0,96,0.00,,SKC,0.20,VWS V13.00,2013-02-24 02:20:00,
2013-02-23 20:25:00,44.5,43.4,29.93,WNW,292,2.0,5.0,96,0.00,,SKC,0.20,VWS V13.00,2013-02-24 02:25:00,
2013-02-23 20:30:00,44.5,43.4,29.94,WNW,292,1.0,5.0,96,0.00,,SKC,0.20,VWS V13.00,2013-02-24 02:30:00,
2013-02-23 20:35:00,44.3,43.2,29.94,WNW,292,0.0,2.0,96,0.00,,SKC,0.20,VWS V13.00,2013-02-24 02:35:00,
2013-02-23 20:40:00,44.0,42.7,29.94,WNW,298,1.0,4.0,95,0.00,,SKC,0.20,VWS V13.00,2013-02-24 02:40:00,
2013-02-23 20:45:00,43.9,42.8,29.94,WNW,298,0.0,4.0,96,0.00,,SKC,0.20,VWS V13.00,2013-02-24 02:45:00,
2013-02-23 20:50:00,44.0,43.2,29.94,WNW,298,2.0,4.0,97,0.00,,SKC,0.20,VWS V13.00,2013-02-24 02:50:00,
2013-02-23 20:55:00,44.1,43.3,29.94,WNW,298,0.0,4.0,97,0.00,,SKC,0.20,VWS V13.00,2013-02-24 02:55:00,
2013-02-23 21:00:00,44.0,43.2,29.94,WNW,298,0.0,4.0,97,0.00,,SKC,0.20,VWS V13.00,2013-02-24 03:00:00,
2013-02-23 21:05:00,43.7,42.6,29.94,WNW,298,0.0,0.0,96,0.00,,SKC,0.20,VWS V13.00,2013-02-24 03:05:00,
2013-02-23 21:10:00,43.4,42.3,29.93,WNW,298,0.0,0.0,96,0.00,,SKC,0.20,VWS V13.00,2013-02-24 03:10:00,
2013-02-23 21:15:00,43.2,42.1,29.94,WNW,298,0.0,0.0,96,0.00,,SKC,0.20,VWS V13.00,2013-02-24 03:15:00,
2013-02-23 21:20:00,43.0,42.2,29.94,WNW,298,0.0,0.0,97,0.00,,SKC,0.20,VWS V13.00,2013-02-24 03:20:00,
2013-02-23 21:25:00,42.7,41.6,29.94,WNW,298,0.0,0.0,96,0.00,,SKC,0.20,VWS V13.00,2013-02-24 03:25:00,
2013-02-23 21:30:00,42.7,41.9,29.94,WNW,298,0.0,0.0,97,0.00,,SKC,0.20,VWS V13.00,2013-02-24 03:30:00,
2013-02-23 21:35:00,42.7,42.2,29.94,WNW,298,0.0,1.0,98,0.00,,SKC,0.20,VWS V13.00,2013-02-24 03:35:00,
2013-02-23 21:40:00,42.8,42.3,29.94,WNW,298,0.0,1.0,98,0.00,,SKC,0.20,VWS V13.00,2013-02-24 03:40:00,
2013-02-23 21:45:00,42.5,41.7,29.94,WNW,298,0.0,1.0,97,0.00,,SKC,0.20,VWS V13.00,2013-02-24 03:45:00,
2013-02-23 21:50:00,42.2,41.4,29.94,WNW,298,0.0,1.0,97,0.00,,SKC,0.20,VWS V13.00,2013-02-24 03:50:00,
2013-02-23 21:55:00,42.0,41.2,29.94,WNW,298,0.0,1.0,97,0.00,,SKC,0.20,VWS V13.00,2013-02-24 03:55:00,
2013-02-23 22:00:00,42.1,41.3,29.93,WNW,298,0.0,1.0,97,0.00,,SKC,0.20,VWS V13.00,2013-02-24 04:00:00,
2013-02-23 22:05:00,42.4,41.9,29.93,WNW,298,0.0,0.0,98,0.00,,SKC,0.20,VWS V13.00,2013-02-24 04:05:00,
2013-02-23 22:10:00,42.5,42.0,29.93,WNW,298,0.0,0.0,98,0.00,,SKC,0.20,VWS V13.00,2013-02-24 04:10:00,
2013-02-23 22:14:00,42.6,42.1,29.93,WNW,298,0.0,0.0,98,0.00,,SKC,0.20,VWS V13.00,2013-02-24 04:14:00,
2013-02-23 22:19:00,42.7,42.2,29.93,WNW,298,0.0,0.0,98,0.00,,SKC,0.20,VWS V13.00,2013-02-24 04:19:00,
2013-02-23 22:24:00,42.7,42.2,29.93,WNW,298,1.0,2.0,98,0.00,,SKC,0.20,VWS V13.00,2013-02-24 04:24:00,
2013-02-23 22:29:00,42.7,42.2,29.93,WNW,298,2.0,2.0,98,0.00,,SKC,0.20,VWS V13.00,2013-02-24 04:29:00,
2013-02-23 22:34:00,42.4,41.9,29.93,WNW,298,1.0,2.0,98,0.00,,SKC,0.20,VWS V13.00,2013-02-24 04:34:00,
2013-02-23 22:39:00,42.4,41.9,29.93,WNW,298,1.0,2.0,98,0.00,,SKC,0.20,VWS V13.00,2013-02-24 04:39:00,
2013-02-23 22:44:00,42.4,41.9,29.93,WNW,298,0.0,2.0,98,0.00,,SKC,0.20,VWS V13.00,2013-02-24 04:44:00,
2013-02-23 22:49:00,42.6,42.1,29.93,WNW,298,1.0,2.0,98,0.00,,SKC,0.20,VWS V13.00,2013-02-24 04:49:00,
2013-02-23 22:54:00,42.7,42.2,29.93,WNW,298,1.0,3.0,98,0.00,,SKC,0.20,VWS V13.00,2013-02-24 04:54:00,
2013-02-23 22:59:00,42.7,42.2,29.93,WNW,298,1.0,3.0,98,0.00,,SKC,0.20,VWS V13.00,2013-02-24 04:59:00,
2013-02-23 23:00:00,42.7,42.2,29.93,WNW,298,0.0,3.0,98,0.00,,SKC,0.20,VWS V13.00,2013-02-24 05:00:00,
2013-02-23 23:05:00,42.5,42.0,29.93,WNW,298,0.0,0.0,98,0.00,,SKC,0.20,VWS V13.00,2013-02-24 05:05:00,
2013-02-23 23:10:00,42.4,41.9,29.93,WNW,298,0.0,2.0,98,0.00,,SKC,0.20,VWS V13.00,2013-02-24 05:10:00,
2013-02-23 23:15:00,42.4,41.9,29.93,WNW,298,2.0,3.0,98,0.00,,SKC,0.20,VWS V13.00,2013-02-24 05:15:00,
2013-02-23 23:20:00,42.4,41.9,29.93,WNW,298,1.0,4.0,98,0.00,,SKC,0.20,VWS V13.00,2013-02-24 05:20:00,
2013-02-23 23:25:00,42.4,41.9,29.93,WNW,288,1.0,4.0,98,0.00,,SKC,0.20,VWS V13.00,2013-02-24 05:25:00,
2013-02-23 23:30:00,42.3,41.8,29.92,WNW,288,1.0,4.0,98,0.00,,SKC,0.20,VWS V13.00,2013-02-24 05:30:00,
2013-02-23 23:35:00,42.1,41.6,29.92,WNW,288,2.0,2.0,98,0.00,,SKC,0.20,VWS V13.00,2013-02-24 05:35:00,
2013-02-23 23:40:00,41.8,41.3,29.93,WNW,288,1.0,2.0,98,0.00,,SKC,0.20,VWS V13.00,2013-02-24 05:40:00,
2013-02-23 23:45:00,41.5,41.0,29.93,WNW,288,0.0,2.0,98,0.00,,SKC,0.20,VWS V13.00,2013-02-24 05:45:00,
2013-02-23 23:50:00,41.3,40.8,29.94,WNW,288,0.0,2.0,98,0.00,,SKC,0.20,VWS V13.00,2013-02-24 05:50:00,
2013-02-23 23:55:00,41.3,40.8,29.94,WNW,288,0.0,2.0,98,0.00,,SKC,0.20,VWS V13.00,2013-02-24 05:55:00,